sensor_id;sensor_type;location;lat;lon;timestamp;temperature;humidity
27779;DHT22;30234;48.090;11.464;2023-09-18T00:02:02;14.50;99.90
27779;DHT22;30234;48.090;11.464;2023-09-18T00:06:03;14.40;99.90
27779;DHT22;30234;48.090;11.464;2023-09-18T00:10:04;14.30;99.90
27779;DHT22;30234;48.090;11.464;2023-09-18T00:14:05;14.30;99.90
27779;DHT22;30234;48.090;11.464;2023-09-18T00:18:06;14.40;99.90
27779;DHT22;30234;48.090;11.464;2023-09-18T00:22:07;14.50;99.90
27779;DHT22;30234;48.090;11.464;2023-09-18T00:26:08;14.60;99.90
27779;DHT22;30234;48.090;11.464;2023-09-18T00:30:09;14.80;99.90
27779;DHT22;30234;48.090;11.464;2023-09-18T00:34:11;15.00;99.90
27779;DHT22;30234;48.090;11.464;2023-09-18T00:38:12;15.20;99.90
27779;DHT22;30234;48.090;11.464;2023-09-18T00:42:13;15.40;99.90
27779;DHT22;30234;48.090;11.464;2023-09-18T00:46:14;15.60;99.90
27779;DHT22;30234;48.090;11.464;2023-09-18T00:50:15;15.70;99.90
27779;DHT22;30234;48.090;11.464;2023-09-18T00:54:18;15.70;99.90
27779;DHT22;30234;48.090;11.464;2023-09-18T00:58:19;15.70;99.90
27779;DHT22;30234;48.090;11.464;2023-09-18T01:02:20;15.60;99.90
27779;DHT22;30234;48.090;11.464;2023-09-18T01:06:21;15.80;99.90
27779;DHT22;30234;48.090;11.464;2023-09-18T01:10:24;15.80;99.90
27779;DHT22;30234;48.090;11.464;2023-09-18T01:14:50;15.80;99.90
27779;DHT22;30234;48.090;11.464;2023-09-18T01:19:04;15.60;99.90
27779;DHT22;30234;48.090;11.464;2023-09-18T01:23:05;15.50;99.90
27779;DHT22;30234;48.090;11.464;2023-09-18T01:27:09;15.40;99.90
27779;DHT22;30234;48.090;11.464;2023-09-18T01:31:11;15.50;99.90
27779;DHT22;30234;48.090;11.464;2023-09-18T01:35:12;15.30;99.90
27779;DHT22;30234;48.090;11.464;2023-09-18T01:39:15;15.10;99.90
27779;DHT22;30234;48.090;11.464;2023-09-18T01:43:16;14.90;99.90
27779;DHT22;30234;48.090;11.464;2023-09-18T01:47:19;14.80;99.90
27779;DHT22;30234;48.090;11.464;2023-09-18T01:51:22;14.70;99.90
27779;DHT22;30234;48.090;11.464;2023-09-18T01:55:22;14.70;99.90
27779;DHT22;30234;48.090;11.464;2023-09-18T01:59:24;14.50;99.90
27779;DHT22;30234;48.090;11.464;2023-09-18T02:03:25;14.40;99.90
27779;DHT22;30234;48.090;11.464;2023-09-18T02:07:26;14.50;99.90
27779;DHT22;30234;48.090;11.464;2023-09-18T02:11:27;14.40;99.90
27779;DHT22;30234;48.090;11.464;2023-09-18T02:15:28;14.30;99.90
27779;DHT22;30234;48.090;11.464;2023-09-18T02:19:31;14.40;99.90
27779;DHT22;30234;48.090;11.464;2023-09-18T02:23:32;14.50;99.90
27779;DHT22;30234;48.090;11.464;2023-09-18T02:27:33;14.20;99.90
27779;DHT22;30234;48.090;11.464;2023-09-18T02:31:34;14.30;99.90
27779;DHT22;30234;48.090;11.464;2023-09-18T02:35:35;14.30;99.90
27779;DHT22;30234;48.090;11.464;2023-09-18T02:39:36;14.30;99.90
27779;DHT22;30234;48.090;11.464;2023-09-18T02:43:37;14.20;99.90
27779;DHT22;30234;48.090;11.464;2023-09-18T02:47:38;15.80;99.90
27779;DHT22;30234;48.090;11.464;2023-09-18T02:51:41;14.20;99.90
27779;DHT22;30234;48.090;11.464;2023-09-18T02:55:42;14.20;99.90
27779;DHT22;30234;48.090;11.464;2023-09-18T02:59:44;14.00;99.90
27779;DHT22;30234;48.090;11.464;2023-09-18T03:03:44;14.00;99.90
27779;DHT22;30234;48.090;11.464;2023-09-18T03:07:45;13.90;99.90
27779;DHT22;30234;48.090;11.464;2023-09-18T03:11:46;13.80;99.90
27779;DHT22;30234;48.090;11.464;2023-09-18T03:15:47;13.80;99.90
27779;DHT22;30234;48.090;11.464;2023-09-18T03:19:48;13.80;99.90
27779;DHT22;30234;48.090;11.464;2023-09-18T03:23:49;13.80;99.90
27779;DHT22;30234;48.090;11.464;2023-09-18T03:27:55;13.80;99.90
27779;DHT22;30234;48.090;11.464;2023-09-18T03:31:57;13.70;99.90
27779;DHT22;30234;48.090;11.464;2023-09-18T03:35:59;13.60;99.90
27779;DHT22;30234;48.090;11.464;2023-09-18T03:40:00;13.50;99.90
27779;DHT22;30234;48.090;11.464;2023-09-18T03:44:02;13.50;99.90
27779;DHT22;30234;48.090;11.464;2023-09-18T03:48:03;13.50;99.90
27779;DHT22;30234;48.090;11.464;2023-09-18T03:52:04;13.40;99.90
27779;DHT22;30234;48.090;11.464;2023-09-18T03:56:05;13.50;99.90
27779;DHT22;30234;48.090;11.464;2023-09-18T04:00:07;13.30;99.90
27779;DHT22;30234;48.090;11.464;2023-09-18T04:04:08;13.20;99.90
27779;DHT22;30234;48.090;11.464;2023-09-18T04:08:09;13.20;99.90
27779;DHT22;30234;48.090;11.464;2023-09-18T04:12:11;13.10;99.90
27779;DHT22;30234;48.090;11.464;2023-09-18T04:16:13;13.10;99.90
27779;DHT22;30234;48.090;11.464;2023-09-18T04:20:17;13.00;99.90
27779;DHT22;30234;48.090;11.464;2023-09-18T04:24:19;13.00;99.90
27779;DHT22;30234;48.090;11.464;2023-09-18T04:28:22;12.90;99.90
27779;DHT22;30234;48.090;11.464;2023-09-18T04:32:23;12.90;99.90
27779;DHT22;30234;48.090;11.464;2023-09-18T04:36:25;12.90;99.90
27779;DHT22;30234;48.090;11.464;2023-09-18T04:40:26;12.80;99.90
27779;DHT22;30234;48.090;11.464;2023-09-18T04:44:32;12.90;99.90
27779;DHT22;30234;48.090;11.464;2023-09-18T04:48:35;13.10;99.90
27779;DHT22;30234;48.090;11.464;2023-09-18T04:52:36;13.10;99.90
27779;DHT22;30234;48.090;11.464;2023-09-18T04:56:38;13.10;99.90
27779;DHT22;30234;48.090;11.464;2023-09-18T05:00:39;13.00;99.90
27779;DHT22;30234;48.090;11.464;2023-09-18T05:04:42;13.00;99.90
27779;DHT22;30234;48.090;11.464;2023-09-18T05:08:44;13.10;99.90
27779;DHT22;30234;48.090;11.464;2023-09-18T05:12:46;13.20;99.90
27779;DHT22;30234;48.090;11.464;2023-09-18T05:16:59;13.40;99.90
27779;DHT22;30234;48.090;11.464;2023-09-18T05:21:00;13.70;99.90
27779;DHT22;30234;48.090;11.464;2023-09-18T05:25:02;13.90;99.90
27779;DHT22;30234;48.090;11.464;2023-09-18T05:29:03;14.10;99.90
27779;DHT22;30234;48.090;11.464;2023-09-18T05:33:05;14.80;99.90
27779;DHT22;30234;48.090;11.464;2023-09-18T05:37:06;15.60;99.90
27779;DHT22;30234;48.090;11.464;2023-09-18T05:41:07;16.70;99.90
27779;DHT22;30234;48.090;11.464;2023-09-18T05:45:18;18.00;99.90
27779;DHT22;30234;48.090;11.464;2023-09-18T05:49:20;19.40;99.90
27779;DHT22;30234;48.090;11.464;2023-09-18T05:53:31;20.20;99.90
27779;DHT22;30234;48.090;11.464;2023-09-18T05:57:36;21.20;99.90
27779;DHT22;30234;48.090;11.464;2023-09-18T06:01:46;22.60;99.90
27779;DHT22;30234;48.090;11.464;2023-09-18T06:06:02;23.80;99.90
27779;DHT22;30234;48.090;11.464;2023-09-18T06:22:15;25.60;99.90
27779;DHT22;30234;48.090;11.464;2023-09-18T06:28:00;26.30;99.90
27779;DHT22;30234;48.090;11.464;2023-09-18T06:33:06;25.90;99.90
27779;DHT22;30234;48.090;11.464;2023-09-18T06:37:08;25.20;99.90
27779;DHT22;30234;48.090;11.464;2023-09-18T06:41:27;25.80;99.90
27779;DHT22;30234;48.090;11.464;2023-09-18T06:45:31;25.70;99.90
27779;DHT22;30234;48.090;11.464;2023-09-18T06:49:34;25.10;99.90
27779;DHT22;30234;48.090;11.464;2023-09-18T06:53:35;25.40;99.90
27779;DHT22;30234;48.090;11.464;2023-09-18T06:57:38;23.80;99.90
27779;DHT22;30234;48.090;11.464;2023-09-18T07:02:00;23.50;99.90
27779;DHT22;30234;48.090;11.464;2023-09-18T07:06:02;25.10;99.90
27779;DHT22;30234;48.090;11.464;2023-09-18T07:10:09;26.50;99.90
27779;DHT22;30234;48.090;11.464;2023-09-18T07:14:10;27.60;99.90
27779;DHT22;30234;48.090;11.464;2023-09-18T07:18:12;29.40;99.90
27779;DHT22;30234;48.090;11.464;2023-09-18T07:22:20;29.80;97.70
27779;DHT22;30234;48.090;11.464;2023-09-18T07:26:21;30.70;94.30
27779;DHT22;30234;48.090;11.464;2023-09-18T07:30:22;30.50;92.10
27779;DHT22;30234;48.090;11.464;2023-09-18T07:34:44;30.50;91.70
27779;DHT22;30234;48.090;11.464;2023-09-18T07:38:50;31.20;91.10
27779;DHT22;30234;48.090;11.464;2023-09-18T07:42:54;31.90;89.80
27779;DHT22;30234;48.090;11.464;2023-09-18T07:46:59;31.50;88.50
27779;DHT22;30234;48.090;11.464;2023-09-18T07:51:02;32.10;86.10
27779;DHT22;30234;48.090;11.464;2023-09-18T07:55:07;32.20;83.80
27779;DHT22;30234;48.090;11.464;2023-09-18T07:59:13;30.90;86.80
27779;DHT22;30234;48.090;11.464;2023-09-18T08:03:18;30.60;86.90
27779;DHT22;30234;48.090;11.464;2023-09-18T08:07:19;30.40;86.30
27779;DHT22;30234;48.090;11.464;2023-09-18T08:11:20;29.10;87.30
27779;DHT22;30234;48.090;11.464;2023-09-18T08:15:29;27.40;91.20
27779;DHT22;30234;48.090;11.464;2023-09-18T08:19:36;26.00;93.10
27779;DHT22;30234;48.090;11.464;2023-09-18T08:23:37;25.40;94.80
27779;DHT22;30234;48.090;11.464;2023-09-18T08:27:39;24.70;95.90
27779;DHT22;30234;48.090;11.464;2023-09-18T08:31:42;24.10;97.00
27779;DHT22;30234;48.090;11.464;2023-09-18T08:35:47;23.90;98.30
27779;DHT22;30234;48.090;11.464;2023-09-18T08:39:50;23.70;99.20
27779;DHT22;30234;48.090;11.464;2023-09-18T08:43:52;23.80;99.90
27779;DHT22;30234;48.090;11.464;2023-09-18T08:47:57;23.90;99.90
27779;DHT22;30234;48.090;11.464;2023-09-18T08:51:59;23.70;99.90
27779;DHT22;30234;48.090;11.464;2023-09-18T08:56:03;23.60;99.90
27779;DHT22;30234;48.090;11.464;2023-09-18T09:00:08;23.40;99.90
27779;DHT22;30234;48.090;11.464;2023-09-18T09:04:12;23.20;99.90
27779;DHT22;30234;48.090;11.464;2023-09-18T09:08:14;23.30;99.90
27779;DHT22;30234;48.090;11.464;2023-09-18T09:17:20;23.30;99.90
27779;DHT22;30234;48.090;11.464;2023-09-18T09:21:21;23.30;99.90
27779;DHT22;30234;48.090;11.464;2023-09-18T09:25:29;23.20;99.90
27779;DHT22;30234;48.090;11.464;2023-09-18T09:30:08;24.00;99.90
27779;DHT22;30234;48.090;11.464;2023-09-18T10:05:28;26.00;99.90
27779;DHT22;30234;48.090;11.464;2023-09-18T10:38:58;25.70;99.90
27779;DHT22;30234;48.090;11.464;2023-09-18T11:06:16;25.20;99.90
27779;DHT22;30234;48.090;11.464;2023-09-18T11:10:27;25.10;99.90
27779;DHT22;30234;48.090;11.464;2023-09-18T11:28:39;23.80;99.90
27779;DHT22;30234;48.090;11.464;2023-09-18T11:32:45;23.40;99.90
27779;DHT22;30234;48.090;11.464;2023-09-18T11:36:50;22.90;99.90
27779;DHT22;30234;48.090;11.464;2023-09-18T11:51:43;21.80;99.90
27779;DHT22;30234;48.090;11.464;2023-09-18T11:55:47;21.30;99.90
27779;DHT22;30234;48.090;11.464;2023-09-18T11:59:48;20.70;99.90
27779;DHT22;30234;48.090;11.464;2023-09-18T12:03:54;20.40;99.90
27779;DHT22;30234;48.090;11.464;2023-09-18T12:08:00;20.20;99.90
27779;DHT22;30234;48.090;11.464;2023-09-18T12:12:01;19.90;99.90
27779;DHT22;30234;48.090;11.464;2023-09-18T12:16:06;19.60;99.90
27779;DHT22;30234;48.090;11.464;2023-09-18T12:20:19;19.20;99.90
27779;DHT22;30234;48.090;11.464;2023-09-18T12:24:23;19.00;99.90
27779;DHT22;30234;48.090;11.464;2023-09-18T12:28:25;19.00;99.90
27779;DHT22;30234;48.090;11.464;2023-09-18T12:32:29;18.80;99.90
27779;DHT22;30234;48.090;11.464;2023-09-18T12:36:30;18.60;99.90
27779;DHT22;30234;48.090;11.464;2023-09-18T12:40:31;18.30;99.90
27779;DHT22;30234;48.090;11.464;2023-09-18T12:44:35;18.20;99.90
27779;DHT22;30234;48.090;11.464;2023-09-18T12:48:37;18.10;99.90
27779;DHT22;30234;48.090;11.464;2023-09-18T12:52:42;18.00;99.90
27779;DHT22;30234;48.090;11.464;2023-09-18T12:56:43;17.90;99.90
27779;DHT22;30234;48.090;11.464;2023-09-18T13:00:46;17.80;99.90
27779;DHT22;30234;48.090;11.464;2023-09-18T13:04:55;17.60;99.90
27779;DHT22;30234;48.090;11.464;2023-09-18T13:09:18;17.60;99.90
27779;DHT22;30234;48.090;11.464;2023-09-18T13:13:21;17.70;99.90
27779;DHT22;30234;48.090;11.464;2023-09-18T13:17:23;17.70;99.90
27779;DHT22;30234;48.090;11.464;2023-09-18T13:21:24;17.80;99.90
27779;DHT22;30234;48.090;11.464;2023-09-18T13:25:29;17.90;99.90
27779;DHT22;30234;48.090;11.464;2023-09-18T13:29:31;17.90;99.90
27779;DHT22;30234;48.090;11.464;2023-09-18T13:33:32;18.00;99.90
27779;DHT22;30234;48.090;11.464;2023-09-18T13:37:34;18.10;99.90
27779;DHT22;30234;48.090;11.464;2023-09-18T13:41:36;18.20;99.90
27779;DHT22;30234;48.090;11.464;2023-09-18T13:45:37;18.30;99.90
27779;DHT22;30234;48.090;11.464;2023-09-18T13:49:38;18.40;99.90
27779;DHT22;30234;48.090;11.464;2023-09-18T13:53:39;18.50;99.90
27779;DHT22;30234;48.090;11.464;2023-09-18T13:57:41;18.70;99.90
27779;DHT22;30234;48.090;11.464;2023-09-18T14:01:42;19.30;99.90
27779;DHT22;30234;48.090;11.464;2023-09-18T14:05:43;20.00;99.90
27779;DHT22;30234;48.090;11.464;2023-09-18T14:09:44;20.30;99.90
27779;DHT22;30234;48.090;11.464;2023-09-18T14:13:46;20.90;99.90
27779;DHT22;30234;48.090;11.464;2023-09-18T14:17:48;20.70;99.90
27779;DHT22;30234;48.090;11.464;2023-09-18T14:21:49;20.50;99.90
27779;DHT22;30234;48.090;11.464;2023-09-18T14:25:50;21.40;99.90
27779;DHT22;30234;48.090;11.464;2023-09-18T14:29:52;21.80;99.90
27779;DHT22;30234;48.090;11.464;2023-09-18T14:33:53;22.00;99.90
27779;DHT22;30234;48.090;11.464;2023-09-18T14:37:53;21.50;99.90
27779;DHT22;30234;48.090;11.464;2023-09-18T14:41:54;20.90;99.90
27779;DHT22;30234;48.090;11.464;2023-09-18T14:45:56;20.60;99.90
27779;DHT22;30234;48.090;11.464;2023-09-18T14:49:57;20.20;99.90
27779;DHT22;30234;48.090;11.464;2023-09-18T14:53:59;19.80;99.90
27779;DHT22;30234;48.090;11.464;2023-09-18T14:58:01;19.70;99.90
27779;DHT22;30234;48.090;11.464;2023-09-18T15:02:01;19.50;99.90
27779;DHT22;30234;48.090;11.464;2023-09-18T15:06:03;19.40;99.90
27779;DHT22;30234;48.090;11.464;2023-09-18T15:10:05;19.30;99.90
27779;DHT22;30234;48.090;11.464;2023-09-18T15:14:06;19.20;99.90
27779;DHT22;30234;48.090;11.464;2023-09-18T15:18:10;18.90;99.90
27779;DHT22;30234;48.090;11.464;2023-09-18T15:22:11;18.70;99.90
27779;DHT22;30234;48.090;11.464;2023-09-18T15:26:11;18.40;99.90
27779;DHT22;30234;48.090;11.464;2023-09-18T15:30:12;18.10;99.90
27779;DHT22;30234;48.090;11.464;2023-09-18T15:34:13;17.80;99.90
27779;DHT22;30234;48.090;11.464;2023-09-18T15:38:14;17.80;99.90
27779;DHT22;30234;48.090;11.464;2023-09-18T15:42:15;17.70;99.90
27779;DHT22;30234;48.090;11.464;2023-09-18T15:46:16;17.60;99.90
27779;DHT22;30234;48.090;11.464;2023-09-18T15:50:20;17.50;99.90
27779;DHT22;30234;48.090;11.464;2023-09-18T15:54:21;17.30;99.90
27779;DHT22;30234;48.090;11.464;2023-09-18T15:58:23;17.30;99.90
27779;DHT22;30234;48.090;11.464;2023-09-18T16:02:24;17.30;99.90
27779;DHT22;30234;48.090;11.464;2023-09-18T16:06:25;17.30;99.90
27779;DHT22;30234;48.090;11.464;2023-09-18T16:10:26;17.80;99.90
27779;DHT22;30234;48.090;11.464;2023-09-18T16:14:27;18.30;99.90
27779;DHT22;30234;48.090;11.464;2023-09-18T16:18:28;18.60;99.90
27779;DHT22;30234;48.090;11.464;2023-09-18T16:22:29;18.80;99.90
27779;DHT22;30234;48.090;11.464;2023-09-18T16:26:30;18.70;99.90
27779;DHT22;30234;48.090;11.464;2023-09-18T16:30:31;18.60;99.90
27779;DHT22;30234;48.090;11.464;2023-09-18T16:34:32;18.80;99.90
27779;DHT22;30234;48.090;11.464;2023-09-18T16:38:33;18.90;99.90
27779;DHT22;30234;48.090;11.464;2023-09-18T16:42:41;18.60;99.90
27779;DHT22;30234;48.090;11.464;2023-09-18T16:46:45;18.40;99.90
27779;DHT22;30234;48.090;11.464;2023-09-18T16:50:45;18.20;99.90
27779;DHT22;30234;48.090;11.464;2023-09-18T16:54:46;17.90;99.90
27779;DHT22;30234;48.090;11.464;2023-09-18T16:58:47;17.80;99.90
27779;DHT22;30234;48.090;11.464;2023-09-18T17:02:48;17.60;99.90
27779;DHT22;30234;48.090;11.464;2023-09-18T17:06:51;17.40;99.90
27779;DHT22;30234;48.090;11.464;2023-09-18T17:10:52;17.20;99.90
27779;DHT22;30234;48.090;11.464;2023-09-18T17:14:53;17.00;99.90
27779;DHT22;30234;48.090;11.464;2023-09-18T17:18:54;16.90;99.90
27779;DHT22;30234;48.090;11.464;2023-09-18T17:22:57;16.70;99.90
27779;DHT22;30234;48.090;11.464;2023-09-18T17:26:58;16.60;99.90
27779;DHT22;30234;48.090;11.464;2023-09-18T17:31:00;16.50;99.90
27779;DHT22;30234;48.090;11.464;2023-09-18T17:35:01;16.40;99.90
27779;DHT22;30234;48.090;11.464;2023-09-18T17:39:02;16.20;99.90
27779;DHT22;30234;48.090;11.464;2023-09-18T17:43:05;16.00;99.90
27779;DHT22;30234;48.090;11.464;2023-09-18T17:47:06;15.90;99.90
27779;DHT22;30234;48.090;11.464;2023-09-18T17:51:07;15.80;99.90
27779;DHT22;30234;48.090;11.464;2023-09-18T17:55:09;15.80;99.90
27779;DHT22;30234;48.090;11.464;2023-09-18T17:59:10;15.80;99.90
27779;DHT22;30234;48.090;11.464;2023-09-18T18:03:12;15.80;99.90
27779;DHT22;30234;48.090;11.464;2023-09-18T18:07:14;15.90;99.90
27779;DHT22;30234;48.090;11.464;2023-09-18T18:11:15;15.80;99.90
27779;DHT22;30234;48.090;11.464;2023-09-18T18:15:16;15.70;99.90
27779;DHT22;30234;48.090;11.464;2023-09-18T18:19:17;15.80;99.90
27779;DHT22;30234;48.090;11.464;2023-09-18T18:23:18;15.90;99.90
27779;DHT22;30234;48.090;11.464;2023-09-18T18:27:19;16.00;99.90
27779;DHT22;30234;48.090;11.464;2023-09-18T18:31:21;16.10;99.90
27779;DHT22;30234;48.090;11.464;2023-09-18T18:35:22;16.10;99.90
27779;DHT22;30234;48.090;11.464;2023-09-18T18:39:23;16.20;99.90
27779;DHT22;30234;48.090;11.464;2023-09-18T18:43:24;16.10;99.90
27779;DHT22;30234;48.090;11.464;2023-09-18T18:47:25;16.10;99.90
27779;DHT22;30234;48.090;11.464;2023-09-18T18:51:26;16.10;99.90
27779;DHT22;30234;48.090;11.464;2023-09-18T18:55:28;16.20;99.90
27779;DHT22;30234;48.090;11.464;2023-09-18T18:59:29;16.20;99.90
27779;DHT22;30234;48.090;11.464;2023-09-18T19:03:31;16.10;99.90
27779;DHT22;30234;48.090;11.464;2023-09-18T19:07:35;16.00;99.90
27779;DHT22;30234;48.090;11.464;2023-09-18T19:11:37;16.00;99.90
27779;DHT22;30234;48.090;11.464;2023-09-18T19:15:39;16.00;99.90
27779;DHT22;30234;48.090;11.464;2023-09-18T19:19:40;16.00;99.90
27779;DHT22;30234;48.090;11.464;2023-09-18T19:23:41;15.90;99.90
27779;DHT22;30234;48.090;11.464;2023-09-18T19:27:46;16.00;99.90
27779;DHT22;30234;48.090;11.464;2023-09-18T19:31:47;16.00;99.90
27779;DHT22;30234;48.090;11.464;2023-09-18T19:35:49;16.10;99.90
27779;DHT22;30234;48.090;11.464;2023-09-18T19:39:50;16.30;99.90
27779;DHT22;30234;48.090;11.464;2023-09-18T19:43:51;16.40;99.90
27779;DHT22;30234;48.090;11.464;2023-09-18T19:47:52;16.30;99.90
27779;DHT22;30234;48.090;11.464;2023-09-18T19:51:53;16.40;99.90
27779;DHT22;30234;48.090;11.464;2023-09-18T19:55:54;16.30;99.90
27779;DHT22;30234;48.090;11.464;2023-09-18T19:59:55;16.20;99.90
27779;DHT22;30234;48.090;11.464;2023-09-18T20:03:56;16.20;99.90
27779;DHT22;30234;48.090;11.464;2023-09-18T20:07:57;16.20;99.90
27779;DHT22;30234;48.090;11.464;2023-09-18T20:11:58;16.10;99.90
27779;DHT22;30234;48.090;11.464;2023-09-18T20:15:59;16.10;99.90
27779;DHT22;30234;48.090;11.464;2023-09-18T20:20:00;16.10;99.90
27779;DHT22;30234;48.090;11.464;2023-09-18T20:24:01;16.00;99.90
27779;DHT22;30234;48.090;11.464;2023-09-18T20:28:02;16.10;99.90
27779;DHT22;30234;48.090;11.464;2023-09-18T20:32:03;15.90;99.90
27779;DHT22;30234;48.090;11.464;2023-09-18T20:36:05;15.90;99.90
27779;DHT22;30234;48.090;11.464;2023-09-18T20:40:06;15.70;99.90
27779;DHT22;30234;48.090;11.464;2023-09-18T20:44:07;15.70;99.90
27779;DHT22;30234;48.090;11.464;2023-09-18T20:48:08;15.60;99.90
27779;DHT22;30234;48.090;11.464;2023-09-18T20:52:09;15.70;99.90
27779;DHT22;30234;48.090;11.464;2023-09-18T20:56:10;15.70;99.90
27779;DHT22;30234;48.090;11.464;2023-09-18T21:00:11;15.70;99.90
27779;DHT22;30234;48.090;11.464;2023-09-18T21:04:12;15.70;99.90
27779;DHT22;30234;48.090;11.464;2023-09-18T21:08:13;15.70;99.90
27779;DHT22;30234;48.090;11.464;2023-09-18T21:12:15;15.70;99.90
27779;DHT22;30234;48.090;11.464;2023-09-18T21:16:19;15.60;99.90
27779;DHT22;30234;48.090;11.464;2023-09-18T21:20:20;15.60;99.90
27779;DHT22;30234;48.090;11.464;2023-09-18T21:24:21;15.70;99.90
27779;DHT22;30234;48.090;11.464;2023-09-18T21:28:22;15.70;99.90
27779;DHT22;30234;48.090;11.464;2023-09-18T21:32:24;15.70;99.90
27779;DHT22;30234;48.090;11.464;2023-09-18T21:36:25;15.70;99.90
27779;DHT22;30234;48.090;11.464;2023-09-18T21:40:27;15.70;99.90
27779;DHT22;30234;48.090;11.464;2023-09-18T21:44:28;15.60;99.90
27779;DHT22;30234;48.090;11.464;2023-09-18T21:48:28;15.60;99.90
27779;DHT22;30234;48.090;11.464;2023-09-18T21:52:29;15.60;99.90
27779;DHT22;30234;48.090;11.464;2023-09-18T21:56:30;15.50;99.90
27779;DHT22;30234;48.090;11.464;2023-09-18T22:00:31;15.50;99.90
27779;DHT22;30234;48.090;11.464;2023-09-18T22:04:34;15.50;99.90
27779;DHT22;30234;48.090;11.464;2023-09-18T22:08:35;15.60;99.90
27779;DHT22;30234;48.090;11.464;2023-09-18T22:12:36;15.60;99.90
27779;DHT22;30234;48.090;11.464;2023-09-18T22:16:38;15.50;99.90
27779;DHT22;30234;48.090;11.464;2023-09-18T22:20:39;15.50;99.90
27779;DHT22;30234;48.090;11.464;2023-09-18T22:24:40;15.50;99.90
27779;DHT22;30234;48.090;11.464;2023-09-18T22:28:41;15.40;99.90
27779;DHT22;30234;48.090;11.464;2023-09-18T22:32:43;15.40;99.90
27779;DHT22;30234;48.090;11.464;2023-09-18T22:36:44;15.40;99.90
27779;DHT22;30234;48.090;11.464;2023-09-18T22:54:47;15.10;99.90
27779;DHT22;30234;48.090;11.464;2023-09-18T22:58:51;15.00;99.90
27779;DHT22;30234;48.090;11.464;2023-09-18T23:02:53;14.80;99.90
27779;DHT22;30234;48.090;11.464;2023-09-18T23:06:54;14.80;99.90
27779;DHT22;30234;48.090;11.464;2023-09-18T23:10:56;14.80;99.90
27779;DHT22;30234;48.090;11.464;2023-09-18T23:15:09;14.80;99.90
27779;DHT22;30234;48.090;11.464;2023-09-18T23:19:13;14.80;99.90
27779;DHT22;30234;48.090;11.464;2023-09-18T23:23:14;14.90;99.90
27779;DHT22;30234;48.090;11.464;2023-09-18T23:27:15;15.10;99.90
27779;DHT22;30234;48.090;11.464;2023-09-18T23:31:17;15.20;99.90
27779;DHT22;30234;48.090;11.464;2023-09-18T23:35:18;15.40;99.90
27779;DHT22;30234;48.090;11.464;2023-09-18T23:39:22;15.40;99.90
27779;DHT22;30234;48.090;11.464;2023-09-18T23:43:25;15.60;99.90
27779;DHT22;30234;48.090;11.464;2023-09-18T23:47:26;15.50;99.90
27779;DHT22;30234;48.090;11.464;2023-09-18T23:51:27;15.60;99.90
27779;DHT22;30234;48.090;11.464;2023-09-18T23:55:29;15.80;99.90
27779;DHT22;30234;48.090;11.464;2023-09-18T23:59:32;15.70;99.90
